sensor_id;sensor_type;location;lat;lon;timestamp;pressure;altitude;pressure_sealevel;temperature;humidity
64895;BME280;51588;53.702;10.208;2022-08-19T00:00:27;100877.50;;;27.33;54.74
64895;BME280;51588;53.702;10.208;2022-08-19T00:02:54;100876.09;;;27.30;54.70
64895;BME280;51588;53.702;10.208;2022-08-19T00:05:22;100878.34;;;27.33;54.72
64895;BME280;51588;53.702;10.208;2022-08-19T00:07:49;100857.00;;;27.30;54.76
64895;BME280;51588;53.702;10.208;2022-08-19T00:10:19;100858.91;;;27.30;54.79
64895;BME280;51588;53.702;10.208;2022-08-19T00:12:46;100851.53;;;27.30;54.88
64895;BME280;51588;53.702;10.208;2022-08-19T00:15:15;100836.25;;;27.29;54.77
64895;BME280;51588;53.702;10.208;2022-08-19T00:17:43;100832.16;;;27.32;54.86
64895;BME280;51588;53.702;10.208;2022-08-19T00:20:11;100825.84;;;27.31;54.85
64895;BME280;51588;53.702;10.208;2022-08-19T00:22:40;100823.41;;;27.30;54.82
64895;BME280;51588;53.702;10.208;2022-08-19T00:25:07;100826.13;;;27.30;54.73
64895;BME280;51588;53.702;10.208;2022-08-19T00:27:34;100836.25;;;27.29;54.59
64895;BME280;51588;53.702;10.208;2022-08-19T00:30:01;100833.22;;;27.31;54.75
64895;BME280;51588;53.702;10.208;2022-08-19T00:32:29;100842.53;;;27.30;54.82
64895;BME280;51588;53.702;10.208;2022-08-19T00:34:56;100840.06;;;27.28;54.77
64895;BME280;51588;53.702;10.208;2022-08-19T00:37:23;100847.16;;;27.29;54.87
64895;BME280;51588;53.702;10.208;2022-08-19T00:39:53;100831.84;;;27.28;55.06
64895;BME280;51588;53.702;10.208;2022-08-19T00:42:21;100830.19;;;27.27;54.83
64895;BME280;51588;53.702;10.208;2022-08-19T00:44:47;100813.28;;;27.25;54.96
64895;BME280;51588;53.702;10.208;2022-08-19T00:47:15;100828.03;;;27.29;55.02
64895;BME280;51588;53.702;10.208;2022-08-19T00:49:45;100820.94;;;27.28;54.71
64895;BME280;51588;53.702;10.208;2022-08-19T00:52:18;100820.94;;;27.28;54.97
64895;BME280;51588;53.702;10.208;2022-08-19T00:54:47;100813.28;;;27.25;55.02
64895;BME280;51588;53.702;10.208;2022-08-19T00:57:17;100807.53;;;27.27;54.94
64895;BME280;51588;53.702;10.208;2022-08-19T00:59:47;100801.50;;;27.25;54.73
64895;BME280;51588;53.702;10.208;2022-08-19T01:02:18;100807.81;;;27.25;54.98
64895;BME280;51588;53.702;10.208;2022-08-19T01:04:44;100807.81;;;27.25;54.73
64895;BME280;51588;53.702;10.208;2022-08-19T01:07:11;100809.47;;;27.26;54.91
64895;BME280;51588;53.702;10.208;2022-08-19T01:09:38;100803.16;;;27.26;55.07
64895;BME280;51588;53.702;10.208;2022-08-19T01:12:05;100797.72;;;27.26;54.66
64895;BME280;51588;53.702;10.208;2022-08-19T01:14:34;100807.81;;;27.25;54.85
64895;BME280;51588;53.702;10.208;2022-08-19T01:17:01;100803.16;;;27.26;54.78
64895;BME280;51588;53.702;10.208;2022-08-19T01:19:30;100797.72;;;27.26;55.14
64895;BME280;51588;53.702;10.208;2022-08-19T01:22:01;100794.69;;;27.22;55.01
64895;BME280;51588;53.702;10.208;2022-08-19T01:24:29;100796.88;;;27.25;54.93
64895;BME280;51588;53.702;10.208;2022-08-19T01:26:56;100794.16;;;27.25;54.82
64895;BME280;51588;53.702;10.208;2022-08-19T01:29:23;100796.06;;;27.25;55.16
64895;BME280;51588;53.702;10.208;2022-08-19T01:31:49;100794.16;;;27.25;54.84
64895;BME280;51588;53.702;10.208;2022-08-19T01:34:19;100793.31;;;27.25;54.92
64895;BME280;51588;53.702;10.208;2022-08-19T01:36:46;100787.03;;;27.24;55.20
64895;BME280;51588;53.702;10.208;2022-08-19T01:39:16;100790.84;;;27.23;55.09
64895;BME280;51588;53.702;10.208;2022-08-19T01:41:45;100795.22;;;27.24;54.97
64895;BME280;51588;53.702;10.208;2022-08-19T01:44:12;100787.28;;;27.18;55.00
64895;BME280;51588;53.702;10.208;2022-08-19T01:46:39;100787.56;;;27.21;54.85
64895;BME280;51588;53.702;10.208;2022-08-19T01:49:06;100788.09;;;27.23;55.05
64895;BME280;51588;53.702;10.208;2022-08-19T01:51:33;100788.94;;;27.24;55.02
64895;BME280;51588;53.702;10.208;2022-08-19T01:54:00;100782.66;;;27.23;55.21
64895;BME280;51588;53.702;10.208;2022-08-19T01:56:27;100782.66;;;27.23;55.10
64895;BME280;51588;53.702;10.208;2022-08-19T01:58:57;100778.28;;;27.22;55.03
64895;BME280;51588;53.702;10.208;2022-08-19T02:01:24;100773.63;;;27.23;54.73
64895;BME280;51588;53.702;10.208;2022-08-19T02:03:50;100771.19;;;27.21;55.07
64895;BME280;51588;53.702;10.208;2022-08-19T02:06:19;100771.44;;;27.20;55.11
64895;BME280;51588;53.702;10.208;2022-08-19T02:08:46;100778.00;;;27.24;55.15
64895;BME280;51588;53.702;10.208;2022-08-19T02:11:20;100776.09;;;27.24;54.85
64895;BME280;51588;53.702;10.208;2022-08-19T02:13:47;100779.38;;;27.21;55.08
64895;BME280;51588;53.702;10.208;2022-08-19T02:16:16;100779.31;;;27.16;55.06
64895;BME280;51588;53.702;10.208;2022-08-19T02:18:43;100777.19;;;27.23;55.22
64895;BME280;51588;53.702;10.208;2022-08-19T02:21:09;100775.56;;;27.22;55.09
64895;BME280;51588;53.702;10.208;2022-08-19T02:23:37;100770.91;;;27.23;55.11
64895;BME280;51588;53.702;10.208;2022-08-19T02:26:04;100761.91;;;27.22;54.92
64895;BME280;51588;53.702;10.208;2022-08-19T02:28:30;100762.97;;;27.21;54.99
64895;BME280;51588;53.702;10.208;2022-08-19T02:30:57;100759.44;;;27.21;55.10
64895;BME280;51588;53.702;10.208;2022-08-19T02:33:27;100761.34;;;27.20;55.18
64895;BME280;51588;53.702;10.208;2022-08-19T02:35:53;100762.16;;;27.21;54.99
64895;BME280;51588;53.702;10.208;2022-08-19T02:38:20;100755.88;;;27.20;55.02
64895;BME280;51588;53.702;10.208;2022-08-19T02:40:53;100747.94;;;27.19;54.99
64895;BME280;51588;53.702;10.208;2022-08-19T02:43:21;100753.13;;;27.20;55.07
64895;BME280;51588;53.702;10.208;2022-08-19T02:45:49;100758.59;;;27.20;54.95
64895;BME280;51588;53.702;10.208;2022-08-19T02:48:17;100762.16;;;27.21;55.06
64895;BME280;51588;53.702;10.208;2022-08-19T02:50:46;100763.22;;;27.20;55.04
64895;BME280;51588;53.702;10.208;2022-08-19T02:53:13;100760.50;;;27.20;55.21
64895;BME280;51588;53.702;10.208;2022-08-19T02:55:44;100768.16;;;27.18;55.03
64895;BME280;51588;53.702;10.208;2022-08-19T02:58:11;100752.59;;;27.18;55.09
64895;BME280;51588;53.702;10.208;2022-08-19T03:00:42;100755.31;;;27.18;55.07
64895;BME280;51588;53.702;10.208;2022-08-19T03:03:09;100758.84;;;27.19;54.96
64895;BME280;51588;53.702;10.208;2022-08-19T03:05:35;100753.38;;;27.19;55.14
64895;BME280;51588;53.702;10.208;2022-08-19T03:08:03;100760.78;;;27.18;55.15
64895;BME280;51588;53.702;10.208;2022-08-19T03:10:31;100755.56;;;27.17;54.95
64895;BME280;51588;53.702;10.208;2022-08-19T03:12:57;100782.63;;;27.18;55.02
64895;BME280;51588;53.702;10.208;2022-08-19T03:15:24;100754.75;;;27.16;55.00
64895;BME280;51588;53.702;10.208;2022-08-19T03:17:51;100759.13;;;27.17;54.98
64895;BME280;51588;53.702;10.208;2022-08-19T03:20:18;100756.41;;;27.17;54.72
64895;BME280;51588;53.702;10.208;2022-08-19T03:22:44;100759.13;;;27.17;55.53
64895;BME280;51588;53.702;10.208;2022-08-19T03:25:12;100757.47;;;27.16;55.06
64895;BME280;51588;53.702;10.208;2022-08-19T03:27:39;100754.47;;;27.13;55.10
64895;BME280;51588;53.702;10.208;2022-08-19T03:30:06;100752.84;;;27.17;54.89
64895;BME280;51588;53.702;10.208;2022-08-19T03:32:34;100758.56;;;27.15;54.90
64895;BME280;51588;53.702;10.208;2022-08-19T03:35:00;100756.94;;;27.14;54.83
64895;BME280;51588;53.702;10.208;2022-08-19T03:37:27;100774.94;;;27.15;54.72
64895;BME280;51588;53.702;10.208;2022-08-19T03:39:53;100778.25;;;27.17;54.91
64895;BME280;51588;53.702;10.208;2022-08-19T03:42:21;100788.59;;;27.15;54.89
64895;BME280;51588;53.702;10.208;2022-08-19T03:44:48;100794.88;;;27.16;54.82
64895;BME280;51588;53.702;10.208;2022-08-19T03:47:14;100802.25;;;27.15;54.64
64895;BME280;51588;53.702;10.208;2022-08-19T03:49:42;100811.28;;;27.16;55.00
64895;BME280;51588;53.702;10.208;2022-08-19T03:52:08;100806.09;;;27.14;54.86
64895;BME280;51588;53.702;10.208;2022-08-19T03:54:35;100757.53;;;26.84;54.88
64895;BME280;51588;53.702;10.208;2022-08-19T03:57:03;100809.91;;;27.13;54.83
64895;BME280;51588;53.702;10.208;2022-08-19T03:59:33;100774.22;;;26.88;55.01
64895;BME280;51588;53.702;10.208;2022-08-19T04:02:02;100834.22;;;27.15;54.98
64895;BME280;51588;53.702;10.208;2022-08-19T04:04:29;100841.84;;;27.13;54.84
64895;BME280;51588;53.702;10.208;2022-08-19T04:06:56;100849.50;;;27.16;54.82
64895;BME280;51588;53.702;10.208;2022-08-19T04:09:22;100750.50;;;26.62;54.94
64895;BME280;51588;53.702;10.208;2022-08-19T04:11:52;100834.47;;;27.13;55.08
64895;BME280;51588;53.702;10.208;2022-08-19T04:14:20;100835.31;;;27.14;54.96
64895;BME280;51588;53.702;10.208;2022-08-19T04:16:48;100839.69;;;27.15;54.92
64895;BME280;51588;53.702;10.208;2022-08-19T04:19:17;100834.22;;;27.15;55.02
64895;BME280;51588;53.702;10.208;2022-08-19T04:21:46;100827.38;;;27.12;54.74
64895;BME280;51588;53.702;10.208;2022-08-19T04:24:13;100796.09;;;26.93;54.96
64895;BME280;51588;53.702;10.208;2022-08-19T04:26:40;100836.63;;;27.11;54.98
64895;BME280;51588;53.702;10.208;2022-08-19T04:29:10;100831.47;;;27.10;54.93
64895;BME280;51588;53.702;10.208;2022-08-19T04:31:37;100828.44;;;27.11;54.93
64895;BME280;51588;53.702;10.208;2022-08-19T04:34:07;100834.72;;;27.12;54.74
64895;BME280;51588;53.702;10.208;2022-08-19T04:36:37;100832.00;;;27.12;54.85
64895;BME280;51588;53.702;10.208;2022-08-19T04:39:06;100832.00;;;27.12;54.85
64895;BME280;51588;53.702;10.208;2022-08-19T04:41:34;100825.72;;;27.11;54.79
64895;BME280;51588;53.702;10.208;2022-08-19T04:44:18;100846.75;;;27.11;54.92
64895;BME280;51588;53.702;10.208;2022-08-19T04:46:44;100847.84;;;27.10;54.94
64895;BME280;51588;53.702;10.208;2022-08-19T04:49:14;100837.16;;;27.08;54.74
64895;BME280;51588;53.702;10.208;2022-08-19T04:51:44;100836.91;;;27.10;55.05
64895;BME280;51588;53.702;10.208;2022-08-19T04:54:11;100842.38;;;27.10;54.89
64895;BME280;51588;53.702;10.208;2022-08-19T04:56:39;100839.66;;;27.10;55.02
64895;BME280;51588;53.702;10.208;2022-08-19T04:59:06;100842.38;;;27.10;54.89
64895;BME280;51588;53.702;10.208;2022-08-19T05:01:34;100831.34;;;26.99;55.04
64895;BME280;51588;53.702;10.208;2022-08-19T05:04:04;100839.91;;;27.08;54.89
64895;BME280;51588;53.702;10.208;2022-08-19T05:06:34;100847.00;;;27.09;54.90
64895;BME280;51588;53.702;10.208;2022-08-19T05:09:03;100839.66;;;27.10;54.92
64895;BME280;51588;53.702;10.208;2022-08-19T05:11:32;100853.03;;;27.11;54.94
64895;BME280;51588;53.702;10.208;2022-08-19T05:13:59;100850.56;;;27.10;54.88
64895;BME280;51588;53.702;10.208;2022-08-19T05:16:27;100864.22;;;27.10;54.95
64895;BME280;51588;53.702;10.208;2022-08-19T05:18:53;100866.13;;;27.09;55.05
64895;BME280;51588;53.702;10.208;2022-08-19T05:21:41;100871.59;;;27.09;55.00
64895;BME280;51588;53.702;10.208;2022-08-19T05:24:25;100860.66;;;27.09;55.06
64895;BME280;51588;53.702;10.208;2022-08-19T05:26:53;100883.03;;;27.06;55.39
64895;BME280;51588;53.702;10.208;2022-08-19T05:29:23;100855.22;;;27.09;54.98
64895;BME280;51588;53.702;10.208;2022-08-19T05:31:52;100871.59;;;27.09;54.95
64895;BME280;51588;53.702;10.208;2022-08-19T05:34:20;100875.69;;;27.07;55.07
64895;BME280;51588;53.702;10.208;2022-08-19T05:36:50;100877.59;;;27.11;55.13
64895;BME280;51588;53.702;10.208;2022-08-19T05:39:23;100868.28;;;27.07;54.96
64895;BME280;51588;53.702;10.208;2022-08-19T05:41:52;100863.41;;;27.09;54.83
64895;BME280;51588;53.702;10.208;2022-08-19T05:44:20;100857.94;;;27.09;55.00
64895;BME280;51588;53.702;10.208;2022-08-19T05:46:47;100859.59;;;27.10;55.08
64895;BME280;51588;53.702;10.208;2022-08-19T05:49:15;100852.47;;;27.09;55.07
64895;BME280;51588;53.702;10.208;2022-08-19T05:51:42;100842.63;;;27.08;55.03
64895;BME280;51588;53.702;10.208;2022-08-19T05:54:11;100835.22;;;27.04;55.03
64895;BME280;51588;53.702;10.208;2022-08-19T05:56:38;100845.13;;;27.10;55.04
64895;BME280;51588;53.702;10.208;2022-08-19T05:59:06;100838.53;;;27.06;55.21
64895;BME280;51588;53.702;10.208;2022-08-19T06:01:34;100836.63;;;27.06;55.13
64895;BME280;51588;53.702;10.208;2022-08-19T06:04:02;100845.34;;;27.08;54.90
64895;BME280;51588;53.702;10.208;2022-08-19T06:06:28;100848.09;;;27.08;55.40
64895;BME280;51588;53.702;10.208;2022-08-19T06:08:55;100852.72;;;27.08;55.20
64895;BME280;51588;53.702;10.208;2022-08-19T06:11:24;100859.84;;;27.09;55.22
64895;BME280;51588;53.702;10.208;2022-08-19T06:14:01;100851.91;;;27.07;55.10
64895;BME280;51588;53.702;10.208;2022-08-19T06:16:28;100859.84;;;27.09;55.14
64895;BME280;51588;53.702;10.208;2022-08-19T06:18:59;100859.84;;;27.09;55.28
64895;BME280;51588;53.702;10.208;2022-08-19T06:21:27;100859.00;;;27.08;55.31
64895;BME280;51588;53.702;10.208;2022-08-19T06:23:55;100844.28;;;27.09;55.34
64895;BME280;51588;53.702;10.208;2022-08-19T06:26:23;100853.31;;;27.10;55.65
64895;BME280;51588;53.702;10.208;2022-08-19T06:28:50;100842.28;;;26.68;56.17
64895;BME280;51588;53.702;10.208;2022-08-19T06:31:20;100862.03;;;26.53;57.20
64895;BME280;51588;53.702;10.208;2022-08-19T06:33:48;100861.75;;;26.28;57.92
64895;BME280;51588;53.702;10.208;2022-08-19T06:36:20;100857.88;;;25.80;58.74
64895;BME280;51588;53.702;10.208;2022-08-19T06:38:47;100860.63;;;26.02;58.49
64895;BME280;51588;53.702;10.208;2022-08-19T06:41:13;100853.56;;;25.84;58.83
64895;BME280;51588;53.702;10.208;2022-08-19T06:43:41;100856.78;;;25.59;59.57
64895;BME280;51588;53.702;10.208;2022-08-19T06:46:10;100840.53;;;25.31;60.23
64895;BME280;51588;53.702;10.208;2022-08-19T06:48:38;100846.16;;;25.25;61.13
64895;BME280;51588;53.702;10.208;2022-08-19T06:51:05;100848.09;;;25.63;60.44
64895;BME280;51588;53.702;10.208;2022-08-19T06:53:31;100850.84;;;25.84;59.47
64895;BME280;51588;53.702;10.208;2022-08-19T06:55:58;100849.00;;;25.90;59.02
64895;BME280;51588;53.702;10.208;2022-08-19T06:58:27;100843.03;;;25.93;58.79
64895;BME280;51588;53.702;10.208;2022-08-19T07:00:59;100853.75;;;25.99;58.60
64895;BME280;51588;53.702;10.208;2022-08-19T07:03:28;100845.53;;;25.94;58.52
64895;BME280;51588;53.702;10.208;2022-08-19T07:05:56;100849.94;;;26.00;58.38
64895;BME280;51588;53.702;10.208;2022-08-19T07:08:23;100863.38;;;26.07;58.02
64895;BME280;51588;53.702;10.208;2022-08-19T07:10:49;100860.63;;;26.02;58.14
64895;BME280;51588;53.702;10.208;2022-08-19T07:13:16;100866.38;;;26.05;57.76
64895;BME280;51588;53.702;10.208;2022-08-19T07:15:42;100860.34;;;26.03;57.76
64895;BME280;51588;53.702;10.208;2022-08-19T07:18:12;100853.81;;;26.04;57.51
64895;BME280;51588;53.702;10.208;2022-08-19T07:20:39;100850.56;;;26.07;57.68
64895;BME280;51588;53.702;10.208;2022-08-19T07:23:06;100854.97;;;26.08;57.75
64895;BME280;51588;53.702;10.208;2022-08-19T07:25:35;100846.41;;;26.00;57.81
64895;BME280;51588;53.702;10.208;2022-08-19T07:28:02;100860.94;;;26.05;57.66
64895;BME280;51588;53.702;10.208;2022-08-19T07:30:30;100850.28;;;26.04;57.71
64895;BME280;51588;53.702;10.208;2022-08-19T07:32:57;100866.69;;;26.09;57.61
64895;BME280;51588;53.702;10.208;2022-08-19T07:35:25;100749.91;;;25.36;57.34
64895;BME280;51588;53.702;10.208;2022-08-19T07:37:53;100860.41;;;26.08;57.72
64895;BME280;51588;53.702;10.208;2022-08-19T07:40:20;100872.16;;;26.09;57.53
64895;BME280;51588;53.702;10.208;2022-08-19T07:42:46;100877.00;;;26.07;57.41
64895;BME280;51588;53.702;10.208;2022-08-19T07:45:13;100874.56;;;26.05;57.64
64895;BME280;51588;53.702;10.208;2022-08-19T07:47:41;100873.22;;;26.08;57.46
64895;BME280;51588;53.702;10.208;2022-08-19T07:50:10;100880.56;;;26.07;57.47
64895;BME280;51588;53.702;10.208;2022-08-19T07:52:38;100870.78;;;26.06;57.42
64895;BME280;51588;53.702;10.208;2022-08-19T07:55:07;100889.03;;;26.06;57.54
64895;BME280;51588;53.702;10.208;2022-08-19T07:57:35;100881.09;;;26.04;57.47
64895;BME280;51588;53.702;10.208;2022-08-19T08:00:03;100886.22;;;26.01;57.50
64895;BME280;51588;53.702;10.208;2022-08-19T08:02:30;100896.06;;;26.02;57.53
64895;BME280;51588;53.702;10.208;2022-08-19T08:04:56;100768.25;;;25.24;57.43
64895;BME280;51588;53.702;10.208;2022-08-19T08:07:42;100898.50;;;26.03;57.54
64895;BME280;51588;53.702;10.208;2022-08-19T08:10:26;100900.38;;;25.98;58.06
64895;BME280;51588;53.702;10.208;2022-08-19T08:12:53;100902.81;;;25.99;57.91
64895;BME280;51588;53.702;10.208;2022-08-19T08:15:20;100906.38;;;26.00;57.96
64895;BME280;51588;53.702;10.208;2022-08-19T08:17:47;100912.91;;;25.99;57.56
64895;BME280;51588;53.702;10.208;2022-08-19T08:20:14;100912.34;;;25.97;57.88
64895;BME280;51588;53.702;10.208;2022-08-19T08:22:44;100915.81;;;25.92;57.77
64895;BME280;51588;53.702;10.208;2022-08-19T08:25:28;100911.44;;;25.91;58.02
64895;BME280;51588;53.702;10.208;2022-08-19T08:27:56;100916.66;;;25.93;57.93
64895;BME280;51588;53.702;10.208;2022-08-19T08:30:27;100940.34;;;25.92;57.89
64895;BME280;51588;53.702;10.208;2022-08-19T08:32:54;100918.31;;;25.94;57.85
64895;BME280;51588;53.702;10.208;2022-08-19T08:35:23;100890.75;;;25.74;57.93
64895;BME280;51588;53.702;10.208;2022-08-19T08:37:53;100927.03;;;25.96;57.87
64895;BME280;51588;53.702;10.208;2022-08-19T08:40:23;100927.56;;;25.93;58.07
64895;BME280;51588;53.702;10.208;2022-08-19T08:42:57;100901.97;;;25.77;57.86
64895;BME280;51588;53.702;10.208;2022-08-19T08:45:28;100917.22;;;25.95;58.31
64895;BME280;51588;53.702;10.208;2022-08-19T08:47:59;100923.00;;;25.98;57.80
64895;BME280;51588;53.702;10.208;2022-08-19T08:50:32;100916.97;;;25.96;58.00
64895;BME280;51588;53.702;10.208;2022-08-19T08:53:03;100925.72;;;25.98;57.83
64895;BME280;51588;53.702;10.208;2022-08-19T08:55:32;100928.19;;;26.00;58.25
64895;BME280;51588;53.702;10.208;2022-08-19T08:58:01;100927.03;;;25.96;58.45
64895;BME280;51588;53.702;10.208;2022-08-19T09:00:31;100924.41;;;26.01;58.17
64895;BME280;51588;53.702;10.208;2022-08-19T09:03:00;100923.81;;;25.99;58.09
64895;BME280;51588;53.702;10.208;2022-08-19T09:05:34;100928.50;;;26.03;58.57
64895;BME280;51588;53.702;10.208;2022-08-19T09:08:10;100931.50;;;26.02;58.65
64895;BME280;51588;53.702;10.208;2022-08-19T09:10:46;100929.22;;;25.94;58.89
64895;BME280;51588;53.702;10.208;2022-08-19T09:13:22;100929.25;;;25.99;58.86
64895;BME280;51588;53.702;10.208;2022-08-19T09:15:56;100932.25;;;25.97;58.82
64895;BME280;51588;53.702;10.208;2022-08-19T09:18:38;100930.09;;;25.99;58.99
64895;BME280;51588;53.702;10.208;2022-08-19T09:21:05;100936.63;;;25.98;59.56
64895;BME280;51588;53.702;10.208;2022-08-19T09:23:34;100926.53;;;25.99;59.07
64895;BME280;51588;53.702;10.208;2022-08-19T09:26:00;100941.81;;;26.00;59.50
64895;BME280;51588;53.702;10.208;2022-08-19T09:28:27;100937.38;;;25.94;59.04
64895;BME280;51588;53.702;10.208;2022-08-19T09:30:54;100932.19;;;25.92;59.38
64895;BME280;51588;53.702;10.208;2022-08-19T09:33:21;100936.47;;;25.88;59.34
64895;BME280;51588;53.702;10.208;2022-08-19T09:35:47;100938.47;;;25.93;59.59
64895;BME280;51588;53.702;10.208;2022-08-19T09:38:14;100936.78;;;25.92;59.13
64895;BME280;51588;53.702;10.208;2022-08-19T09:40:42;100924.81;;;25.93;59.02
64895;BME280;51588;53.702;10.208;2022-08-19T09:43:08;100936.25;;;25.90;59.39
64895;BME280;51588;53.702;10.208;2022-08-19T09:45:36;100887.31;;;25.62;59.08
64895;BME280;51588;53.702;10.208;2022-08-19T09:48:03;100934.06;;;25.92;58.98
64895;BME280;51588;53.702;10.208;2022-08-19T09:50:30;100931.09;;;25.93;59.01
64895;BME280;51588;53.702;10.208;2022-08-19T09:52:59;100928.63;;;25.92;59.02
64895;BME280;51588;53.702;10.208;2022-08-19T09:55:25;100930.03;;;25.94;58.82
64895;BME280;51588;53.702;10.208;2022-08-19T09:57:54;100926.47;;;25.94;58.71
64895;BME280;51588;53.702;10.208;2022-08-19T10:00:21;100929.22;;;25.94;58.67
64895;BME280;51588;53.702;10.208;2022-08-19T10:02:48;100934.66;;;25.94;59.02
64895;BME280;51588;53.702;10.208;2022-08-19T10:05:14;100925.06;;;25.91;58.75
64895;BME280;51588;53.702;10.208;2022-08-19T10:07:58;100920.94;;;25.89;58.85
64895;BME280;51588;53.702;10.208;2022-08-19T10:10:26;100926.41;;;25.89;58.76
64895;BME280;51588;53.702;10.208;2022-08-19T10:12:54;100912.38;;;25.80;58.70
64895;BME280;51588;53.702;10.208;2022-08-19T10:15:21;100931.63;;;25.90;58.89
64895;BME280;51588;53.702;10.208;2022-08-19T10:17:47;100931.03;;;25.88;58.58
64895;BME280;51588;53.702;10.208;2022-08-19T10:20:14;100931.78;;;25.84;58.86
64895;BME280;51588;53.702;10.208;2022-08-19T10:22:40;100927.97;;;25.85;58.75
64895;BME280;51588;53.702;10.208;2022-08-19T10:25:08;100925.75;;;25.82;58.76
64895;BME280;51588;53.702;10.208;2022-08-19T10:27:35;100936.16;;;25.85;58.86
64895;BME280;51588;53.702;10.208;2022-08-19T10:30:04;100946.00;;;25.86;58.58
64895;BME280;51588;53.702;10.208;2022-08-19T10:32:31;100945.41;;;25.84;58.80
64895;BME280;51588;53.702;10.208;2022-08-19T10:34:59;100899.09;;;25.50;58.95
64895;BME280;51588;53.702;10.208;2022-08-19T10:37:25;100943.19;;;25.81;58.64
64895;BME280;51588;53.702;10.208;2022-08-19T10:39:52;100932.28;;;25.81;58.64
64895;BME280;51588;53.702;10.208;2022-08-19T10:42:19;100911.19;;;25.54;58.75
64895;BME280;51588;53.702;10.208;2022-08-19T10:44:46;100936.06;;;25.80;58.70
64895;BME280;51588;53.702;10.208;2022-08-19T10:47:14;100922.94;;;25.77;59.00
64895;BME280;51588;53.702;10.208;2022-08-19T10:49:41;100936.66;;;25.82;59.12
64895;BME280;51588;53.702;10.208;2022-08-19T10:52:21;100935.59;;;25.83;58.96
64895;BME280;51588;53.702;10.208;2022-08-19T10:55:00;100929.88;;;25.84;59.31
64895;BME280;51588;53.702;10.208;2022-08-19T10:57:44;100927.66;;;25.81;59.21
64895;BME280;51588;53.702;10.208;2022-08-19T11:00:12;100924.44;;;25.84;60.08
64895;BME280;51588;53.702;10.208;2022-08-19T11:02:40;100922.28;;;25.86;59.80
64895;BME280;51588;53.702;10.208;2022-08-19T11:05:08;100916.25;;;25.84;59.55
64895;BME280;51588;53.702;10.208;2022-08-19T11:07:36;100925.84;;;25.87;59.66
64895;BME280;51588;53.702;10.208;2022-08-19T11:10:04;100925.34;;;25.90;59.83
64895;BME280;51588;53.702;10.208;2022-08-19T11:12:30;100923.44;;;25.90;59.86
64895;BME280;51588;53.702;10.208;2022-08-19T11:14:58;100927.00;;;25.91;59.99
64895;BME280;51588;53.702;10.208;2022-08-19T11:17:25;100924.25;;;25.91;60.00
64895;BME280;51588;53.702;10.208;2022-08-19T11:19:53;100924.00;;;25.92;60.05
64895;BME280;51588;53.702;10.208;2022-08-19T11:22:19;100926.72;;;25.92;59.81
64895;BME280;51588;53.702;10.208;2022-08-19T11:24:46;100914.75;;;25.93;59.78
64895;BME280;51588;53.702;10.208;2022-08-19T11:27:12;100917.22;;;25.95;59.98
64895;BME280;51588;53.702;10.208;2022-08-19T11:29:39;100917.47;;;25.93;60.99
64895;BME280;51588;53.702;10.208;2022-08-19T11:32:08;100927.03;;;25.96;60.41
64895;BME280;51588;53.702;10.208;2022-08-19T11:34:35;100935.53;;;25.99;60.70
64895;BME280;51588;53.702;10.208;2022-08-19T11:37:04;100923.56;;;26.00;60.49
64895;BME280;51588;53.702;10.208;2022-08-19T11:39:32;100928.78;;;26.02;60.29
64895;BME280;51588;53.702;10.208;2022-08-19T11:42:00;100886.97;;;25.75;60.30
64895;BME280;51588;53.702;10.208;2022-08-19T11:44:27;100927.44;;;26.04;60.26
64895;BME280;51588;53.702;10.208;2022-08-19T11:46:56;100930.41;;;26.03;59.90
64895;BME280;51588;53.702;10.208;2022-08-19T11:49:23;100919.84;;;26.06;59.78
64895;BME280;51588;53.702;10.208;2022-08-19T11:51:49;100919.34;;;26.10;59.61
64895;BME280;51588;53.702;10.208;2022-08-19T11:54:17;100912.53;;;26.12;59.45
64895;BME280;51588;53.702;10.208;2022-08-19T11:56:44;100915.09;;;26.19;59.63
64895;BME280;51588;53.702;10.208;2022-08-19T11:59:13;100918.13;;;26.22;59.55
64895;BME280;51588;53.702;10.208;2022-08-19T12:01:39;100923.13;;;26.25;59.31
64895;BME280;51588;53.702;10.208;2022-08-19T12:04:07;100913.34;;;26.29;59.20
64895;BME280;51588;53.702;10.208;2022-08-19T12:06:37;100928.91;;;26.34;59.64
64895;BME280;51588;53.702;10.208;2022-08-19T12:09:06;100923.81;;;26.37;59.54
64895;BME280;51588;53.702;10.208;2022-08-19T12:11:35;100922.19;;;26.41;59.40
64895;BME280;51588;53.702;10.208;2022-08-19T12:14:02;100918.47;;;26.47;59.04
64895;BME280;51588;53.702;10.208;2022-08-19T12:16:31;100932.09;;;26.47;59.18
64895;BME280;51588;53.702;10.208;2022-08-19T12:18:58;100932.97;;;26.53;59.32
64895;BME280;51588;53.702;10.208;2022-08-19T12:21:29;100925.06;;;26.51;59.04
64895;BME280;51588;53.702;10.208;2022-08-19T12:23:57;100928.34;;;26.53;58.74
64895;BME280;51588;53.702;10.208;2022-08-19T12:26:25;100924.53;;;26.54;58.78
64895;BME280;51588;53.702;10.208;2022-08-19T12:28:54;100925.59;;;26.53;58.68
64895;BME280;51588;53.702;10.208;2022-08-19T12:31:20;100924.84;;;26.58;58.42
64895;BME280;51588;53.702;10.208;2022-08-19T12:33:47;100924.06;;;26.63;58.43
64895;BME280;51588;53.702;10.208;2022-08-19T12:36:16;100925.47;;;26.65;58.04
64895;BME280;51588;53.702;10.208;2022-08-19T12:38:43;100888.50;;;26.52;57.92
64895;BME280;51588;53.702;10.208;2022-08-19T12:41:12;100914.59;;;26.70;57.93
64895;BME280;51588;53.702;10.208;2022-08-19T12:43:39;100917.91;;;26.72;58.07
64895;BME280;51588;53.702;10.208;2022-08-19T12:46:07;100919.31;;;26.75;57.83